sensor_id;sensor_type;location;lat;lon;timestamp;temperature;humidity
19435;DHT22;9853;50.848;4.108;2023-05-29T00:00:38;14.70;99.90
19435;DHT22;9853;50.848;4.108;2023-05-29T00:02:39;14.70;99.90
19435;DHT22;9853;50.848;4.108;2023-05-29T00:04:44;14.70;99.90
19435;DHT22;9853;50.848;4.108;2023-05-29T00:06:45;14.80;99.90
19435;DHT22;9853;50.848;4.108;2023-05-29T00:08:46;14.70;99.90
19435;DHT22;9853;50.848;4.108;2023-05-29T00:10:47;14.70;99.90
19435;DHT22;9853;50.848;4.108;2023-05-29T00:12:47;14.60;99.90
19435;DHT22;9853;50.848;4.108;2023-05-29T00:14:48;14.60;99.90
19435;DHT22;9853;50.848;4.108;2023-05-29T00:16:53;14.50;99.90
19435;DHT22;9853;50.848;4.108;2023-05-29T00:18:54;14.50;99.90
19435;DHT22;9853;50.848;4.108;2023-05-29T00:20:55;14.50;99.90
19435;DHT22;9853;50.848;4.108;2023-05-29T00:22:56;14.40;99.90
19435;DHT22;9853;50.848;4.108;2023-05-29T00:24:57;14.30;99.90
19435;DHT22;9853;50.848;4.108;2023-05-29T00:26:57;14.20;99.90
19435;DHT22;9853;50.848;4.108;2023-05-29T00:28:58;14.10;99.90
19435;DHT22;9853;50.848;4.108;2023-05-29T00:31:00;14.10;99.90
19435;DHT22;9853;50.848;4.108;2023-05-29T00:33:01;14.10;99.90
19435;DHT22;9853;50.848;4.108;2023-05-29T00:35:03;14.10;99.90
19435;DHT22;9853;50.848;4.108;2023-05-29T00:37:04;14.10;99.90
19435;DHT22;9853;50.848;4.108;2023-05-29T00:39:05;14.00;99.90
19435;DHT22;9853;50.848;4.108;2023-05-29T00:41:06;13.90;99.90
19435;DHT22;9853;50.848;4.108;2023-05-29T00:43:09;14.00;99.90
19435;DHT22;9853;50.848;4.108;2023-05-29T00:45:10;13.90;99.90
19435;DHT22;9853;50.848;4.108;2023-05-29T00:47:15;13.90;99.90
19435;DHT22;9853;50.848;4.108;2023-05-29T00:49:16;13.90;99.90
19435;DHT22;9853;50.848;4.108;2023-05-29T00:51:17;13.80;99.90
19435;DHT22;9853;50.848;4.108;2023-05-29T00:53:19;13.90;99.90
19435;DHT22;9853;50.848;4.108;2023-05-29T00:55:20;13.90;99.90
19435;DHT22;9853;50.848;4.108;2023-05-29T00:57:21;13.80;99.90
19435;DHT22;9853;50.848;4.108;2023-05-29T00:59:23;13.80;99.90
19435;DHT22;9853;50.848;4.108;2023-05-29T01:01:25;13.70;99.90
19435;DHT22;9853;50.848;4.108;2023-05-29T01:03:28;13.70;99.90
19435;DHT22;9853;50.848;4.108;2023-05-29T01:05:29;13.80;99.90
19435;DHT22;9853;50.848;4.108;2023-05-29T01:07:29;13.90;99.90
19435;DHT22;9853;50.848;4.108;2023-05-29T01:09:31;13.70;99.90
19435;DHT22;9853;50.848;4.108;2023-05-29T01:13:49;13.70;99.90
19435;DHT22;9853;50.848;4.108;2023-05-29T01:16:35;13.60;99.90
19435;DHT22;9853;50.848;4.108;2023-05-29T01:18:51;13.50;99.90
19435;DHT22;9853;50.848;4.108;2023-05-29T01:23:23;13.40;99.90
19435;DHT22;9853;50.848;4.108;2023-05-29T01:27:31;13.30;99.90
19435;DHT22;9853;50.848;4.108;2023-05-29T01:29:34;13.20;99.90
19435;DHT22;9853;50.848;4.108;2023-05-29T01:31:37;13.20;99.90
19435;DHT22;9853;50.848;4.108;2023-05-29T01:33:39;13.10;99.90
19435;DHT22;9853;50.848;4.108;2023-05-29T01:35:48;13.10;99.90
19435;DHT22;9853;50.848;4.108;2023-05-29T01:37:50;13.10;99.90
19435;DHT22;9853;50.848;4.108;2023-05-29T01:39:50;13.10;99.90
19435;DHT22;9853;50.848;4.108;2023-05-29T01:41:53;13.00;99.90
19435;DHT22;9853;50.848;4.108;2023-05-29T01:43:56;12.90;99.90
19435;DHT22;9853;50.848;4.108;2023-05-29T01:45:57;12.90;99.90
19435;DHT22;9853;50.848;4.108;2023-05-29T01:47:58;12.90;99.90
19435;DHT22;9853;50.848;4.108;2023-05-29T01:50:07;12.90;99.90
19435;DHT22;9853;50.848;4.108;2023-05-29T01:52:13;12.80;99.90
19435;DHT22;9853;50.848;4.108;2023-05-29T01:54:17;12.80;99.90
19435;DHT22;9853;50.848;4.108;2023-05-29T01:56:17;12.80;99.90
19435;DHT22;9853;50.848;4.108;2023-05-29T01:58:20;12.80;99.90
19435;DHT22;9853;50.848;4.108;2023-05-29T02:00:22;12.70;99.90
19435;DHT22;9853;50.848;4.108;2023-05-29T02:02:24;12.60;99.90
19435;DHT22;9853;50.848;4.108;2023-05-29T02:04:29;12.60;99.90
19435;DHT22;9853;50.848;4.108;2023-05-29T02:06:30;12.60;99.90
19435;DHT22;9853;50.848;4.108;2023-05-29T02:08:31;12.50;99.90
19435;DHT22;9853;50.848;4.108;2023-05-29T02:10:32;12.50;99.90
19435;DHT22;9853;50.848;4.108;2023-05-29T02:12:33;12.50;99.90
19435;DHT22;9853;50.848;4.108;2023-05-29T02:14:34;12.40;99.90
19435;DHT22;9853;50.848;4.108;2023-05-29T02:16:41;12.50;99.90
19435;DHT22;9853;50.848;4.108;2023-05-29T02:18:44;12.40;99.90
19435;DHT22;9853;50.848;4.108;2023-05-29T02:20:48;12.40;99.90
19435;DHT22;9853;50.848;4.108;2023-05-29T02:22:59;12.30;99.90
19435;DHT22;9853;50.848;4.108;2023-05-29T02:24:59;12.30;99.90
19435;DHT22;9853;50.848;4.108;2023-05-29T02:27:03;12.30;99.90
19435;DHT22;9853;50.848;4.108;2023-05-29T02:29:04;12.30;99.90
19435;DHT22;9853;50.848;4.108;2023-05-29T02:31:11;12.30;99.90
19435;DHT22;9853;50.848;4.108;2023-05-29T02:33:12;12.20;99.90
19435;DHT22;9853;50.848;4.108;2023-05-29T02:35:13;12.10;99.90
19435;DHT22;9853;50.848;4.108;2023-05-29T02:37:19;12.10;99.90
19435;DHT22;9853;50.848;4.108;2023-05-29T02:39:20;12.00;99.90
19435;DHT22;9853;50.848;4.108;2023-05-29T02:41:21;12.00;99.90
19435;DHT22;9853;50.848;4.108;2023-05-29T02:43:22;11.90;99.90
19435;DHT22;9853;50.848;4.108;2023-05-29T02:45:26;11.90;99.90
19435;DHT22;9853;50.848;4.108;2023-05-29T02:47:28;11.90;99.90
19435;DHT22;9853;50.848;4.108;2023-05-29T02:49:29;11.80;99.90
19435;DHT22;9853;50.848;4.108;2023-05-29T02:51:46;11.80;99.90
19435;DHT22;9853;50.848;4.108;2023-05-29T02:53:47;11.70;99.90
19435;DHT22;9853;50.848;4.108;2023-05-29T02:55:49;11.70;99.90
19435;DHT22;9853;50.848;4.108;2023-05-29T02:57:56;11.70;99.90
19435;DHT22;9853;50.848;4.108;2023-05-29T02:59:56;11.70;99.90
19435;DHT22;9853;50.848;4.108;2023-05-29T03:01:58;11.70;99.90
19435;DHT22;9853;50.848;4.108;2023-05-29T03:03:59;11.60;99.90
19435;DHT22;9853;50.848;4.108;2023-05-29T03:06:00;11.60;99.90
19435;DHT22;9853;50.848;4.108;2023-05-29T03:08:04;11.60;99.90
19435;DHT22;9853;50.848;4.108;2023-05-29T03:10:05;11.60;99.90
19435;DHT22;9853;50.848;4.108;2023-05-29T03:12:10;11.60;99.90
19435;DHT22;9853;50.848;4.108;2023-05-29T03:14:11;11.60;99.90
19435;DHT22;9853;50.848;4.108;2023-05-29T03:16:12;11.60;99.90
19435;DHT22;9853;50.848;4.108;2023-05-29T03:18:15;11.50;99.90
19435;DHT22;9853;50.848;4.108;2023-05-29T03:20:19;11.50;99.90
19435;DHT22;9853;50.848;4.108;2023-05-29T03:22:21;11.50;99.90
19435;DHT22;9853;50.848;4.108;2023-05-29T03:24:22;11.50;99.90
19435;DHT22;9853;50.848;4.108;2023-05-29T03:26:24;11.50;99.90
19435;DHT22;9853;50.848;4.108;2023-05-29T03:28:27;11.50;99.90
19435;DHT22;9853;50.848;4.108;2023-05-29T03:30:28;11.40;99.90
19435;DHT22;9853;50.848;4.108;2023-05-29T03:32:29;11.40;99.90
19435;DHT22;9853;50.848;4.108;2023-05-29T03:34:31;11.30;99.90
19435;DHT22;9853;50.848;4.108;2023-05-29T03:36:33;11.30;99.90
19435;DHT22;9853;50.848;4.108;2023-05-29T03:38:37;11.30;99.90
19435;DHT22;9853;50.848;4.108;2023-05-29T03:40:38;11.30;99.90
19435;DHT22;9853;50.848;4.108;2023-05-29T03:42:39;11.30;99.90
19435;DHT22;9853;50.848;4.108;2023-05-29T03:44:40;11.30;99.90
19435;DHT22;9853;50.848;4.108;2023-05-29T03:46:43;11.20;99.90
19435;DHT22;9853;50.848;4.108;2023-05-29T03:48:45;11.20;99.90
19435;DHT22;9853;50.848;4.108;2023-05-29T03:50:46;11.20;99.90
19435;DHT22;9853;50.848;4.108;2023-05-29T03:52:48;11.20;99.90
19435;DHT22;9853;50.848;4.108;2023-05-29T03:54:49;11.20;99.90
19435;DHT22;9853;50.848;4.108;2023-05-29T03:56:51;11.20;99.90
19435;DHT22;9853;50.848;4.108;2023-05-29T03:58:52;11.20;99.90
19435;DHT22;9853;50.848;4.108;2023-05-29T04:00:54;11.20;99.90
19435;DHT22;9853;50.848;4.108;2023-05-29T04:02:55;11.20;99.90
19435;DHT22;9853;50.848;4.108;2023-05-29T04:04:56;11.20;99.90
19435;DHT22;9853;50.848;4.108;2023-05-29T04:06:57;11.20;99.90
19435;DHT22;9853;50.848;4.108;2023-05-29T04:09:09;11.10;99.90
19435;DHT22;9853;50.848;4.108;2023-05-29T04:11:10;11.20;99.90
19435;DHT22;9853;50.848;4.108;2023-05-29T04:13:16;11.10;99.90
19435;DHT22;9853;50.848;4.108;2023-05-29T04:15:16;11.10;99.90
19435;DHT22;9853;50.848;4.108;2023-05-29T04:17:20;11.10;99.90
19435;DHT22;9853;50.848;4.108;2023-05-29T04:19:21;11.20;99.90
19435;DHT22;9853;50.848;4.108;2023-05-29T04:21:22;11.20;99.90
19435;DHT22;9853;50.848;4.108;2023-05-29T04:23:27;11.20;99.90
19435;DHT22;9853;50.848;4.108;2023-05-29T04:25:28;11.10;99.90
19435;DHT22;9853;50.848;4.108;2023-05-29T04:27:32;11.20;99.90
19435;DHT22;9853;50.848;4.108;2023-05-29T04:29:42;11.10;99.90
19435;DHT22;9853;50.848;4.108;2023-05-29T04:31:42;11.20;99.90
19435;DHT22;9853;50.848;4.108;2023-05-29T04:33:44;11.20;99.90
19435;DHT22;9853;50.848;4.108;2023-05-29T04:35:45;11.20;99.90
19435;DHT22;9853;50.848;4.108;2023-05-29T04:37:49;11.30;99.90
19435;DHT22;9853;50.848;4.108;2023-05-29T04:39:53;11.20;99.90
19435;DHT22;9853;50.848;4.108;2023-05-29T04:41:58;11.20;99.90
19435;DHT22;9853;50.848;4.108;2023-05-29T04:44:05;11.20;99.90
19435;DHT22;9853;50.848;4.108;2023-05-29T04:46:25;11.20;99.90
19435;DHT22;9853;50.848;4.108;2023-05-29T04:48:27;11.20;99.90
19435;DHT22;9853;50.848;4.108;2023-05-29T04:50:28;11.30;99.90
19435;DHT22;9853;50.848;4.108;2023-05-29T04:52:31;11.30;99.90
19435;DHT22;9853;50.848;4.108;2023-05-29T04:54:34;11.30;99.90
19435;DHT22;9853;50.848;4.108;2023-05-29T04:56:35;11.30;99.90
19435;DHT22;9853;50.848;4.108;2023-05-29T04:58:38;11.30;99.90
19435;DHT22;9853;50.848;4.108;2023-05-29T05:00:39;11.30;99.90
19435;DHT22;9853;50.848;4.108;2023-05-29T05:02:42;11.20;99.90
19435;DHT22;9853;50.848;4.108;2023-05-29T05:04:43;11.20;99.90
19435;DHT22;9853;50.848;4.108;2023-05-29T05:06:46;11.30;99.90
19435;DHT22;9853;50.848;4.108;2023-05-29T05:08:50;11.40;99.90
19435;DHT22;9853;50.848;4.108;2023-05-29T05:10:51;11.40;99.90
19435;DHT22;9853;50.848;4.108;2023-05-29T05:12:53;11.40;99.90
19435;DHT22;9853;50.848;4.108;2023-05-29T05:14:56;11.40;99.90
19435;DHT22;9853;50.848;4.108;2023-05-29T05:16:56;11.30;99.90
19435;DHT22;9853;50.848;4.108;2023-05-29T05:18:57;11.40;99.90
19435;DHT22;9853;50.848;4.108;2023-05-29T05:20:58;11.50;99.90
19435;DHT22;9853;50.848;4.108;2023-05-29T05:22:59;11.50;99.90
19435;DHT22;9853;50.848;4.108;2023-05-29T05:25:00;11.40;99.90
19435;DHT22;9853;50.848;4.108;2023-05-29T05:27:01;11.50;99.90
19435;DHT22;9853;50.848;4.108;2023-05-29T05:29:02;11.60;99.90
19435;DHT22;9853;50.848;4.108;2023-05-29T05:31:05;11.60;99.90
19435;DHT22;9853;50.848;4.108;2023-05-29T05:33:07;11.70;99.90
19435;DHT22;9853;50.848;4.108;2023-05-29T05:35:08;11.70;99.90
19435;DHT22;9853;50.848;4.108;2023-05-29T05:37:11;11.70;99.90
19435;DHT22;9853;50.848;4.108;2023-05-29T05:39:32;11.70;99.90
19435;DHT22;9853;50.848;4.108;2023-05-29T05:41:33;11.80;99.90
19435;DHT22;9853;50.848;4.108;2023-05-29T05:43:35;11.90;99.90
19435;DHT22;9853;50.848;4.108;2023-05-29T05:45:46;11.90;99.90
19435;DHT22;9853;50.848;4.108;2023-05-29T05:47:47;11.80;99.90
19435;DHT22;9853;50.848;4.108;2023-05-29T05:49:48;11.80;99.90
19435;DHT22;9853;50.848;4.108;2023-05-29T05:51:50;11.80;99.90
19435;DHT22;9853;50.848;4.108;2023-05-29T05:53:51;11.90;99.90
19435;DHT22;9853;50.848;4.108;2023-05-29T05:55:52;12.00;99.90
19435;DHT22;9853;50.848;4.108;2023-05-29T05:57:53;12.10;99.90
19435;DHT22;9853;50.848;4.108;2023-05-29T05:59:56;12.20;99.90
19435;DHT22;9853;50.848;4.108;2023-05-29T06:01:58;12.10;99.90
19435;DHT22;9853;50.848;4.108;2023-05-29T06:03:59;12.20;99.90
19435;DHT22;9853;50.848;4.108;2023-05-29T06:05:59;12.10;99.90
19435;DHT22;9853;50.848;4.108;2023-05-29T06:08:00;12.00;99.90
19435;DHT22;9853;50.848;4.108;2023-05-29T06:10:03;12.10;99.90
19435;DHT22;9853;50.848;4.108;2023-05-29T06:12:04;12.20;99.90
19435;DHT22;9853;50.848;4.108;2023-05-29T06:14:06;12.20;99.90
19435;DHT22;9853;50.848;4.108;2023-05-29T06:16:07;12.20;99.90
19435;DHT22;9853;50.848;4.108;2023-05-29T06:18:09;12.20;99.90
19435;DHT22;9853;50.848;4.108;2023-05-29T06:20:10;12.20;99.90
19435;DHT22;9853;50.848;4.108;2023-05-29T06:22:11;12.20;99.90
19435;DHT22;9853;50.848;4.108;2023-05-29T06:24:12;12.20;99.90
19435;DHT22;9853;50.848;4.108;2023-05-29T06:26:14;12.30;99.90
19435;DHT22;9853;50.848;4.108;2023-05-29T06:28:16;12.30;99.90
19435;DHT22;9853;50.848;4.108;2023-05-29T06:30:17;12.30;99.90
19435;DHT22;9853;50.848;4.108;2023-05-29T06:32:18;12.30;99.90
19435;DHT22;9853;50.848;4.108;2023-05-29T06:34:19;12.40;99.90
19435;DHT22;9853;50.848;4.108;2023-05-29T06:36:20;12.50;99.90
19435;DHT22;9853;50.848;4.108;2023-05-29T06:38:20;12.50;99.90
19435;DHT22;9853;50.848;4.108;2023-05-29T06:40:21;12.50;99.90
19435;DHT22;9853;50.848;4.108;2023-05-29T06:42:27;12.60;99.90
19435;DHT22;9853;50.848;4.108;2023-05-29T06:44:32;12.70;99.90
19435;DHT22;9853;50.848;4.108;2023-05-29T06:46:35;12.90;99.90
19435;DHT22;9853;50.848;4.108;2023-05-29T06:48:36;13.00;99.90
19435;DHT22;9853;50.848;4.108;2023-05-29T06:50:37;13.10;99.90
19435;DHT22;9853;50.848;4.108;2023-05-29T06:52:52;13.20;99.90
19435;DHT22;9853;50.848;4.108;2023-05-29T06:55:01;13.20;99.90
19435;DHT22;9853;50.848;4.108;2023-05-29T06:57:02;13.20;99.90
19435;DHT22;9853;50.848;4.108;2023-05-29T06:59:03;13.20;99.90
19435;DHT22;9853;50.848;4.108;2023-05-29T07:01:05;13.20;99.90
19435;DHT22;9853;50.848;4.108;2023-05-29T07:03:06;13.30;99.90
19435;DHT22;9853;50.848;4.108;2023-05-29T07:05:08;13.50;99.90
19435;DHT22;9853;50.848;4.108;2023-05-29T07:07:10;13.50;99.90
19435;DHT22;9853;50.848;4.108;2023-05-29T07:09:11;13.50;99.90
19435;DHT22;9853;50.848;4.108;2023-05-29T07:11:12;13.80;99.90
19435;DHT22;9853;50.848;4.108;2023-05-29T07:13:15;14.50;99.90
19435;DHT22;9853;50.848;4.108;2023-05-29T07:15:17;15.00;99.90
19435;DHT22;9853;50.848;4.108;2023-05-29T07:17:19;15.40;99.90
19435;DHT22;9853;50.848;4.108;2023-05-29T07:19:33;15.50;99.90
19435;DHT22;9853;50.848;4.108;2023-05-29T07:21:35;15.60;99.90
19435;DHT22;9853;50.848;4.108;2023-05-29T07:23:37;15.70;99.90
19435;DHT22;9853;50.848;4.108;2023-05-29T07:25:38;15.70;99.90
19435;DHT22;9853;50.848;4.108;2023-05-29T07:27:38;15.90;99.90
19435;DHT22;9853;50.848;4.108;2023-05-29T07:29:54;16.10;99.90
19435;DHT22;9853;50.848;4.108;2023-05-29T07:31:55;16.30;99.90
19435;DHT22;9853;50.848;4.108;2023-05-29T07:33:58;16.30;99.90
19435;DHT22;9853;50.848;4.108;2023-05-29T07:35:59;16.50;99.90
19435;DHT22;9853;50.848;4.108;2023-05-29T07:38:00;16.70;99.90
19435;DHT22;9853;50.848;4.108;2023-05-29T07:40:05;16.70;99.90
19435;DHT22;9853;50.848;4.108;2023-05-29T07:42:25;16.70;99.90
19435;DHT22;9853;50.848;4.108;2023-05-29T07:44:29;16.70;99.90
19435;DHT22;9853;50.848;4.108;2023-05-29T07:46:30;16.90;99.90
19435;DHT22;9853;50.848;4.108;2023-05-29T07:48:48;16.90;99.90
19435;DHT22;9853;50.848;4.108;2023-05-29T07:50:50;17.10;99.90
19435;DHT22;9853;50.848;4.108;2023-05-29T07:52:54;17.30;99.90
19435;DHT22;9853;50.848;4.108;2023-05-29T07:54:58;17.40;99.90
19435;DHT22;9853;50.848;4.108;2023-05-29T07:57:00;17.50;99.90
19435;DHT22;9853;50.848;4.108;2023-05-29T07:59:00;17.50;99.90
19435;DHT22;9853;50.848;4.108;2023-05-29T08:01:01;17.40;99.90
19435;DHT22;9853;50.848;4.108;2023-05-29T08:03:02;17.30;99.90
19435;DHT22;9853;50.848;4.108;2023-05-29T08:05:29;17.50;99.90
19435;DHT22;9853;50.848;4.108;2023-05-29T08:07:33;17.50;99.90
19435;DHT22;9853;50.848;4.108;2023-05-29T08:09:35;17.30;99.90
19435;DHT22;9853;50.848;4.108;2023-05-29T08:11:37;17.30;99.90
19435;DHT22;9853;50.848;4.108;2023-05-29T08:13:37;17.50;99.90
19435;DHT22;9853;50.848;4.108;2023-05-29T08:15:39;17.50;99.90
19435;DHT22;9853;50.848;4.108;2023-05-29T08:17:40;17.80;99.90
19435;DHT22;9853;50.848;4.108;2023-05-29T08:19:41;17.70;99.90
19435;DHT22;9853;50.848;4.108;2023-05-29T08:21:41;17.30;99.90
19435;DHT22;9853;50.848;4.108;2023-05-29T08:23:42;17.30;99.90
19435;DHT22;9853;50.848;4.108;2023-05-29T08:25:43;17.30;99.90
19435;DHT22;9853;50.848;4.108;2023-05-29T08:27:46;17.40;99.90
19435;DHT22;9853;50.848;4.108;2023-05-29T08:29:47;17.50;99.90
19435;DHT22;9853;50.848;4.108;2023-05-29T08:31:48;17.80;99.90
19435;DHT22;9853;50.848;4.108;2023-05-29T08:33:52;17.90;99.90
19435;DHT22;9853;50.848;4.108;2023-05-29T08:35:58;18.20;99.90
19435;DHT22;9853;50.848;4.108;2023-05-29T08:38:14;18.50;99.90
19435;DHT22;9853;50.848;4.108;2023-05-29T08:40:14;18.50;99.90
19435;DHT22;9853;50.848;4.108;2023-05-29T08:42:21;18.30;99.90
19435;DHT22;9853;50.848;4.108;2023-05-29T08:44:29;18.30;99.90
19435;DHT22;9853;50.848;4.108;2023-05-29T08:46:32;18.30;99.90
19435;DHT22;9853;50.848;4.108;2023-05-29T08:48:37;18.40;99.90
19435;DHT22;9853;50.848;4.108;2023-05-29T08:50:46;18.50;99.90
19435;DHT22;9853;50.848;4.108;2023-05-29T08:52:47;18.50;99.90
19435;DHT22;9853;50.848;4.108;2023-05-29T08:54:48;18.60;99.90
19435;DHT22;9853;50.848;4.108;2023-05-29T08:56:49;18.70;99.90
19435;DHT22;9853;50.848;4.108;2023-05-29T08:58:50;18.60;99.90
19435;DHT22;9853;50.848;4.108;2023-05-29T09:00:51;18.50;99.90
19435;DHT22;9853;50.848;4.108;2023-05-29T09:02:52;18.40;99.90
19435;DHT22;9853;50.848;4.108;2023-05-29T09:05:08;18.30;99.90
19435;DHT22;9853;50.848;4.108;2023-05-29T09:07:11;18.40;99.90
19435;DHT22;9853;50.848;4.108;2023-05-29T09:09:13;18.50;99.90
19435;DHT22;9853;50.848;4.108;2023-05-29T09:11:13;18.50;99.90
19435;DHT22;9853;50.848;4.108;2023-05-29T09:13:16;18.50;99.90
19435;DHT22;9853;50.848;4.108;2023-05-29T09:15:18;18.40;99.90
19435;DHT22;9853;50.848;4.108;2023-05-29T09:17:19;18.70;99.90
19435;DHT22;9853;50.848;4.108;2023-05-29T09:19:22;18.50;99.90
19435;DHT22;9853;50.848;4.108;2023-05-29T09:21:27;18.40;99.90
19435;DHT22;9853;50.848;4.108;2023-05-29T09:23:28;18.40;99.90
19435;DHT22;9853;50.848;4.108;2023-05-29T09:25:29;18.50;99.90
19435;DHT22;9853;50.848;4.108;2023-05-29T09:27:38;18.50;99.90
19435;DHT22;9853;50.848;4.108;2023-05-29T09:29:42;18.60;99.90
19435;DHT22;9853;50.848;4.108;2023-05-29T09:31:49;18.80;99.90
19435;DHT22;9853;50.848;4.108;2023-05-29T09:33:53;18.80;99.90
19435;DHT22;9853;50.848;4.108;2023-05-29T09:35:56;18.70;99.90
19435;DHT22;9853;50.848;4.108;2023-05-29T09:37:57;18.70;99.90
19435;DHT22;9853;50.848;4.108;2023-05-29T09:39:58;18.70;99.90
19435;DHT22;9853;50.848;4.108;2023-05-29T09:41:59;18.30;99.90
19435;DHT22;9853;50.848;4.108;2023-05-29T09:44:03;18.10;99.90
19435;DHT22;9853;50.848;4.108;2023-05-29T09:46:06;18.10;99.90
19435;DHT22;9853;50.848;4.108;2023-05-29T09:48:18;18.20;99.90
19435;DHT22;9853;50.848;4.108;2023-05-29T09:50:19;18.40;99.90
19435;DHT22;9853;50.848;4.108;2023-05-29T09:52:23;18.60;99.90
19435;DHT22;9853;50.848;4.108;2023-05-29T09:54:29;18.70;99.90
19435;DHT22;9853;50.848;4.108;2023-05-29T09:56:31;19.10;99.90
19435;DHT22;9853;50.848;4.108;2023-05-29T09:58:33;19.30;99.90
19435;DHT22;9853;50.848;4.108;2023-05-29T10:00:34;19.30;99.90
19435;DHT22;9853;50.848;4.108;2023-05-29T10:02:35;19.30;99.90
19435;DHT22;9853;50.848;4.108;2023-05-29T10:04:36;19.10;99.90
19435;DHT22;9853;50.848;4.108;2023-05-29T10:06:38;19.00;99.90
19435;DHT22;9853;50.848;4.108;2023-05-29T10:08:45;19.10;99.90
19435;DHT22;9853;50.848;4.108;2023-05-29T10:11:07;19.00;99.90
19435;DHT22;9853;50.848;4.108;2023-05-29T10:13:14;18.90;99.90
19435;DHT22;9853;50.848;4.108;2023-05-29T10:15:16;18.90;99.90
19435;DHT22;9853;50.848;4.108;2023-05-29T10:17:18;18.90;99.90
19435;DHT22;9853;50.848;4.108;2023-05-29T10:19:27;19.10;99.90
19435;DHT22;9853;50.848;4.108;2023-05-29T10:21:29;19.30;99.90
19435;DHT22;9853;50.848;4.108;2023-05-29T10:23:32;19.20;99.90
19435;DHT22;9853;50.848;4.108;2023-05-29T10:25:36;19.00;99.90
19435;DHT22;9853;50.848;4.108;2023-05-29T10:27:37;18.60;99.90
19435;DHT22;9853;50.848;4.108;2023-05-29T10:29:43;18.40;99.90
19435;DHT22;9853;50.848;4.108;2023-05-29T10:32:32;18.10;99.90
19435;DHT22;9853;50.848;4.108;2023-05-29T10:36:42;18.10;99.90
19435;DHT22;9853;50.848;4.108;2023-05-29T10:38:45;18.10;99.90
19435;DHT22;9853;50.848;4.108;2023-05-29T10:40:46;18.30;99.90
19435;DHT22;9853;50.848;4.108;2023-05-29T10:42:51;18.30;99.90
19435;DHT22;9853;50.848;4.108;2023-05-29T10:47:32;18.40;99.90
19435;DHT22;9853;50.848;4.108;2023-05-29T10:49:33;18.30;99.90
19435;DHT22;9853;50.848;4.108;2023-05-29T10:51:47;18.20;99.90
19435;DHT22;9853;50.848;4.108;2023-05-29T10:53:51;18.20;99.90
19435;DHT22;9853;50.848;4.108;2023-05-29T10:55:53;18.20;99.90
19435;DHT22;9853;50.848;4.108;2023-05-29T10:57:54;18.20;99.90
19435;DHT22;9853;50.848;4.108;2023-05-29T11:00:05;18.20;99.90
19435;DHT22;9853;50.848;4.108;2023-05-29T11:02:09;18.30;99.90
19435;DHT22;9853;50.848;4.108;2023-05-29T11:06:22;18.40;99.90
19435;DHT22;9853;50.848;4.108;2023-05-29T11:08:35;18.50;99.90
19435;DHT22;9853;50.848;4.108;2023-05-29T11:10:55;18.40;99.90
19435;DHT22;9853;50.848;4.108;2023-05-29T11:12:56;18.50;99.90
19435;DHT22;9853;50.848;4.108;2023-05-29T11:15:06;18.50;99.90
19435;DHT22;9853;50.848;4.108;2023-05-29T11:17:07;18.40;99.90
19435;DHT22;9853;50.848;4.108;2023-05-29T11:19:08;18.50;99.90
19435;DHT22;9853;50.848;4.108;2023-05-29T11:21:34;18.50;99.90
19435;DHT22;9853;50.848;4.108;2023-05-29T11:23:42;18.40;99.90
19435;DHT22;9853;50.848;4.108;2023-05-29T11:25:45;18.60;99.90
19435;DHT22;9853;50.848;4.108;2023-05-29T11:27:47;18.70;99.90
19435;DHT22;9853;50.848;4.108;2023-05-29T11:29:48;18.60;99.90
19435;DHT22;9853;50.848;4.108;2023-05-29T11:32:14;18.60;99.90
19435;DHT22;9853;50.848;4.108;2023-05-29T11:34:17;18.50;99.90
19435;DHT22;9853;50.848;4.108;2023-05-29T11:36:18;18.40;99.90
19435;DHT22;9853;50.848;4.108;2023-05-29T11:38:23;18.50;99.90
19435;DHT22;9853;50.848;4.108;2023-05-29T11:40:25;18.40;99.90
19435;DHT22;9853;50.848;4.108;2023-05-29T11:42:28;18.40;99.90
19435;DHT22;9853;50.848;4.108;2023-05-29T11:44:29;18.40;99.90
19435;DHT22;9853;50.848;4.108;2023-05-29T11:46:30;18.60;99.90
19435;DHT22;9853;50.848;4.108;2023-05-29T11:48:32;18.80;99.90
19435;DHT22;9853;50.848;4.108;2023-05-29T11:50:33;18.90;99.90
19435;DHT22;9853;50.848;4.108;2023-05-29T11:52:34;19.10;99.90
19435;DHT22;9853;50.848;4.108;2023-05-29T11:54:36;19.20;99.90
19435;DHT22;9853;50.848;4.108;2023-05-29T11:56:36;19.10;99.90
19435;DHT22;9853;50.848;4.108;2023-05-29T11:58:41;19.00;99.90
19435;DHT22;9853;50.848;4.108;2023-05-29T12:00:42;19.10;99.90
19435;DHT22;9853;50.848;4.108;2023-05-29T12:02:45;19.30;99.90
19435;DHT22;9853;50.848;4.108;2023-05-29T12:05:06;19.30;99.90
19435;DHT22;9853;50.848;4.108;2023-05-29T12:07:18;19.30;99.90
19435;DHT22;9853;50.848;4.108;2023-05-29T12:09:29;19.20;99.90
19435;DHT22;9853;50.848;4.108;2023-05-29T12:11:30;19.30;99.90
19435;DHT22;9853;50.848;4.108;2023-05-29T12:13:34;19.20;99.90
19435;DHT22;9853;50.848;4.108;2023-05-29T12:15:35;19.30;99.90
19435;DHT22;9853;50.848;4.108;2023-05-29T12:17:40;19.40;99.90
19435;DHT22;9853;50.848;4.108;2023-05-29T12:19:41;19.40;99.90
19435;DHT22;9853;50.848;4.108;2023-05-29T12:21:42;19.50;99.90
19435;DHT22;9853;50.848;4.108;2023-05-29T12:23:44;19.60;99.90
19435;DHT22;9853;50.848;4.108;2023-05-29T12:25:45;19.70;99.90
19435;DHT22;9853;50.848;4.108;2023-05-29T12:27:47;19.70;99.90
19435;DHT22;9853;50.848;4.108;2023-05-29T12:29:48;19.50;99.90
19435;DHT22;9853;50.848;4.108;2023-05-29T12:31:57;19.60;99.90
19435;DHT22;9853;50.848;4.108;2023-05-29T12:34:08;19.90;99.90
19435;DHT22;9853;50.848;4.108;2023-05-29T12:36:09;20.20;99.90
19435;DHT22;9853;50.848;4.108;2023-05-29T12:38:10;20.10;99.90
19435;DHT22;9853;50.848;4.108;2023-05-29T12:42:16;19.80;99.90
19435;DHT22;9853;50.848;4.108;2023-05-29T12:44:18;19.70;99.90
19435;DHT22;9853;50.848;4.108;2023-05-29T12:46:19;19.70;99.90
19435;DHT22;9853;50.848;4.108;2023-05-29T12:48:20;19.80;99.90
19435;DHT22;9853;50.848;4.108;2023-05-29T12:50:30;19.70;99.90
19435;DHT22;9853;50.848;4.108;2023-05-29T12:52:31;19.70;99.90
19435;DHT22;9853;50.848;4.108;2023-05-29T12:54:32;19.70;99.90
19435;DHT22;9853;50.848;4.108;2023-05-29T12:56:33;19.70;99.90
19435;DHT22;9853;50.848;4.108;2023-05-29T12:58:33;19.60;99.90
19435;DHT22;9853;50.848;4.108;2023-05-29T13:00:36;19.60;99.90
19435;DHT22;9853;50.848;4.108;2023-05-29T13:02:37;19.60;99.90
19435;DHT22;9853;50.848;4.108;2023-05-29T13:04:38;19.70;99.90
19435;DHT22;9853;50.848;4.108;2023-05-29T13:06:38;19.60;99.90
19435;DHT22;9853;50.848;4.108;2023-05-29T13:08:39;19.70;99.90
19435;DHT22;9853;50.848;4.108;2023-05-29T13:10:40;19.90;99.90
19435;DHT22;9853;50.848;4.108;2023-05-29T13:12:41;20.10;99.90
19435;DHT22;9853;50.848;4.108;2023-05-29T13:14:42;20.10;99.90
19435;DHT22;9853;50.848;4.108;2023-05-29T13:16:43;20.10;99.90
19435;DHT22;9853;50.848;4.108;2023-05-29T13:18:44;20.20;99.90
19435;DHT22;9853;50.848;4.108;2023-05-29T13:20:44;20.10;99.90
19435;DHT22;9853;50.848;4.108;2023-05-29T13:22:47;19.90;99.90
19435;DHT22;9853;50.848;4.108;2023-05-29T13:24:48;20.00;99.90
19435;DHT22;9853;50.848;4.108;2023-05-29T13:26:53;20.10;99.90